createdAt,value
2023-12-17T00:02:41.757Z,14.00
2023-12-17T00:05:49.138Z,14.90
2023-12-17T00:08:35.960Z,11.63
2023-12-17T00:11:22.290Z,11.80
2023-12-17T00:14:12.769Z,11.80
2023-12-17T00:16:59.294Z,12.30
2023-12-17T00:19:45.623Z,11.50
2023-12-17T00:22:32.376Z,11.10
2023-12-17T00:25:18.598Z,11.80
2023-12-17T00:28:04.880Z,12.07
2023-12-17T00:30:52.913Z,11.20
2023-12-17T00:33:39.780Z,10.90
2023-12-17T00:36:26.405Z,10.73
2023-12-17T00:39:14.667Z,11.77
2023-12-17T00:42:01.147Z,10.80
2023-12-17T00:44:48.014Z,11.80
2023-12-17T00:47:36.479Z,12.00
2023-12-17T00:50:23.322Z,11.67
2023-12-17T00:53:11.132Z,11.73
2023-12-17T00:55:58.439Z,11.70
2023-12-17T00:58:44.955Z,12.10
2023-12-17T01:01:31.592Z,12.53
2023-12-17T01:04:19.513Z,12.43
2023-12-17T01:07:05.992Z,11.97
2023-12-17T01:09:52.388Z,12.23
2023-12-17T01:12:38.710Z,13.07
2023-12-17T01:15:25.080Z,12.50
2023-12-17T01:18:11.851Z,12.20
2023-12-17T01:21:01.664Z,11.67
2023-12-17T01:23:47.997Z,12.30
2023-12-17T01:26:36.317Z,11.97
2023-12-17T01:29:23.514Z,13.17
2023-12-17T01:32:10.297Z,13.17
2023-12-17T01:34:57.070Z,12.13
2023-12-17T01:37:45.150Z,12.20
2023-12-17T01:40:32.709Z,11.53
2023-12-17T01:43:18.957Z,12.40
2023-12-17T01:46:06.340Z,11.80
2023-12-17T01:48:53.403Z,11.80
2023-12-17T01:51:40.494Z,11.83
2023-12-17T01:54:29.029Z,10.83
2023-12-17T01:57:15.466Z,12.00
2023-12-17T02:00:02.390Z,11.63
2023-12-17T02:02:51.806Z,11.33
2023-12-17T02:05:38.735Z,11.30
2023-12-17T02:08:25.421Z,11.57
2023-12-17T02:11:12.969Z,11.63
2023-12-17T02:13:59.222Z,10.83
2023-12-17T02:16:45.554Z,11.07
2023-12-17T02:19:32.902Z,11.00
2023-12-17T02:22:19.301Z,10.80
2023-12-17T02:25:08.173Z,11.07
2023-12-17T02:27:57.816Z,11.17
2023-12-17T02:30:44.032Z,11.23
2023-12-17T02:33:30.715Z,10.70
2023-12-17T02:36:18.341Z,11.67
2023-12-17T02:39:05.136Z,11.50
2023-12-17T02:41:53.227Z,11.10
2023-12-17T02:44:40.005Z,11.33
2023-12-17T02:47:26.265Z,12.77
2023-12-17T02:50:12.988Z,11.63
2023-12-17T02:52:59.329Z,12.63
2023-12-17T02:55:46.034Z,12.00
2023-12-17T02:58:34.136Z,11.10
2023-12-17T03:01:20.905Z,12.67
2023-12-17T03:04:07.527Z,12.57
2023-12-17T03:06:54.129Z,11.57
2023-12-17T03:09:40.472Z,11.00
2023-12-17T03:12:27.151Z,11.80
2023-12-17T03:15:15.238Z,11.30
2023-12-17T03:18:02.463Z,12.03
2023-12-17T03:20:48.959Z,10.13
2023-12-17T03:23:35.680Z,11.17
2023-12-17T03:26:22.289Z,10.60
2023-12-17T03:29:08.779Z,11.57
2023-12-17T03:31:56.573Z,11.63
2023-12-17T03:34:43.099Z,11.47
2023-12-17T03:37:29.846Z,10.10
2023-12-17T03:40:16.566Z,10.40
2023-12-17T03:43:03.434Z,10.93
2023-12-17T03:45:49.684Z,10.70
2023-12-17T03:48:37.209Z,10.23
2023-12-17T03:51:23.936Z,10.83
2023-12-17T03:54:10.658Z,10.57
2023-12-17T03:56:57.307Z,10.07
2023-12-17T03:59:44.288Z,10.57
2023-12-17T04:02:31.122Z,10.57
2023-12-17T04:05:19.036Z,10.77
2023-12-17T04:08:06.993Z,10.93
2023-12-17T04:10:53.445Z,10.40
2023-12-17T04:13:40.210Z,10.40
2023-12-17T04:16:26.857Z,10.90
2023-12-17T04:19:13.308Z,10.77
2023-12-17T04:22:01.188Z,11.33
2023-12-17T04:24:47.390Z,10.10
2023-12-17T04:27:34.289Z,10.70
2023-12-17T04:30:20.903Z,10.50
2023-12-17T04:33:07.782Z,10.30
2023-12-17T04:35:54.589Z,9.60
2023-12-17T04:38:42.974Z,10.60
2023-12-17T04:41:29.453Z,10.83
2023-12-17T04:44:15.790Z,10.00
2023-12-17T04:47:01.928Z,10.23
2023-12-17T04:49:48.490Z,11.40
2023-12-17T04:52:36.512Z,10.80
2023-12-17T04:55:24.409Z,11.50
2023-12-17T04:58:11.406Z,10.97
2023-12-17T05:01:00.445Z,9.87
2023-12-17T05:03:47.357Z,11.40
2023-12-17T05:06:34.305Z,10.63
2023-12-17T05:09:20.761Z,10.70
2023-12-17T05:12:09.191Z,9.43
2023-12-17T05:14:56.107Z,10.80
2023-12-17T05:17:43.077Z,10.20
2023-12-17T05:20:30.090Z,10.53
2023-12-17T05:23:16.473Z,9.63
2023-12-17T05:26:02.642Z,9.90
2023-12-17T05:28:50.207Z,11.30
2023-12-17T05:31:36.625Z,11.00
2023-12-17T05:34:23.400Z,10.00
2023-12-17T05:37:10.043Z,11.30
2023-12-17T05:39:56.490Z,10.60
2023-12-17T05:42:42.930Z,10.80
2023-12-17T05:45:31.856Z,11.00
2023-12-17T05:48:18.595Z,9.87
2023-12-17T05:51:09.399Z,11.03
2023-12-17T05:53:56.095Z,11.40
2023-12-17T05:56:43.523Z,11.77
2023-12-17T05:59:30.189Z,10.80
2023-12-17T06:02:17.897Z,11.30
2023-12-17T06:05:04.354Z,10.60
2023-12-17T06:07:50.746Z,12.00
2023-12-17T06:10:37.132Z,11.10
2023-12-17T06:13:23.225Z,11.90
2023-12-17T06:16:10.801Z,12.13
2023-12-17T06:18:58.676Z,11.50
2023-12-17T06:21:45.204Z,11.97
2023-12-17T06:24:31.648Z,11.93
2023-12-17T06:27:18.572Z,12.00
2023-12-17T06:30:06.121Z,12.40
2023-12-17T06:32:53.105Z,12.27
2023-12-17T06:35:41.019Z,12.30
2023-12-17T06:38:27.287Z,12.20
2023-12-17T06:41:13.620Z,13.10
2023-12-17T06:43:59.864Z,12.03
2023-12-17T06:46:45.956Z,12.90
2023-12-17T06:49:32.793Z,12.60
2023-12-17T06:52:20.723Z,11.90
2023-12-17T06:55:07.834Z,12.30
2023-12-17T06:57:54.193Z,13.20
2023-12-17T07:00:40.980Z,13.10
2023-12-17T07:03:27.456Z,13.27
2023-12-17T07:06:14.291Z,13.00
2023-12-17T07:09:01.957Z,14.30
2023-12-17T07:11:48.869Z,13.20
2023-12-17T07:14:35.194Z,12.67
2023-12-17T07:17:21.649Z,14.70
2023-12-17T07:20:10.041Z,15.10
2023-12-17T07:22:56.223Z,15.57
2023-12-17T07:25:43.949Z,14.83
2023-12-17T07:28:30.172Z,14.70
2023-12-17T07:31:16.441Z,14.83
2023-12-17T07:34:03.352Z,15.53
2023-12-17T07:36:50.706Z,16.20
2023-12-17T07:39:37.200Z,16.90
2023-12-17T07:42:24.976Z,16.60
2023-12-17T07:45:12.113Z,16.27
2023-12-17T07:47:59.140Z,17.83
2023-12-17T07:50:45.754Z,17.30
2023-12-17T07:53:32.752Z,17.00
2023-12-17T07:56:19.426Z,15.73
2023-12-17T07:59:07.516Z,15.93
2023-12-17T08:01:54.006Z,17.33
2023-12-17T08:04:40.272Z,16.10
2023-12-17T08:07:26.925Z,16.80
2023-12-17T08:10:13.104Z,16.33
2023-12-17T08:12:59.367Z,16.87
2023-12-17T08:15:47.251Z,17.57
2023-12-17T08:18:33.985Z,17.67
2023-12-17T08:21:21.781Z,17.87
2023-12-17T08:24:08.540Z,17.77
2023-12-17T08:26:56.255Z,14.73
2023-12-17T08:29:48.963Z,17.07
2023-12-17T08:32:38.168Z,16.17
2023-12-17T08:35:24.564Z,15.97
2023-12-17T08:38:10.733Z,15.27
2023-12-17T08:40:57.113Z,17.47
2023-12-17T08:43:43.857Z,16.30
2023-12-17T08:46:30.392Z,16.47
2023-12-17T08:49:18.155Z,16.33
2023-12-17T08:52:05.482Z,15.70
2023-12-17T08:54:51.771Z,15.87
2023-12-17T08:57:38.265Z,15.70
2023-12-17T09:00:25.034Z,15.60
2023-12-17T09:03:11.951Z,15.97
2023-12-17T09:06:01.231Z,15.50
2023-12-17T09:08:47.425Z,16.43
2023-12-17T09:11:35.005Z,16.20
2023-12-17T09:14:21.933Z,15.93
2023-12-17T09:17:08.557Z,16.40
2023-12-17T09:19:55.502Z,15.60
2023-12-17T09:22:43.500Z,16.47
2023-12-17T09:25:30.071Z,14.50
2023-12-17T09:28:17.001Z,16.67
2023-12-17T09:31:03.805Z,14.80
2023-12-17T09:33:50.633Z,15.60
2023-12-17T09:36:37.700Z,15.77
2023-12-17T09:39:25.796Z,14.70
2023-12-17T09:42:14.571Z,15.87
2023-12-17T09:45:01.603Z,15.00
2023-12-17T09:47:51.635Z,15.43
2023-12-17T09:50:38.269Z,15.33
2023-12-17T09:53:24.788Z,14.60
2023-12-17T09:56:13.233Z,13.80
2023-12-17T09:59:00.422Z,13.37
2023-12-17T10:01:47.860Z,13.00
2023-12-17T10:04:34.307Z,13.70
2023-12-17T10:07:21.593Z,12.23
2023-12-17T10:10:09.043Z,12.20
2023-12-17T10:12:56.748Z,12.83
2023-12-17T10:15:44.046Z,12.00
2023-12-17T10:18:31.234Z,12.27
2023-12-17T10:21:17.520Z,12.03
2023-12-17T10:24:04.540Z,13.30
2023-12-17T10:26:52.159Z,12.83
2023-12-17T10:29:40.076Z,13.23
2023-12-17T10:32:27.963Z,12.57
2023-12-17T10:35:16.014Z,12.53
2023-12-17T10:38:04.807Z,12.50
2023-12-17T10:40:51.537Z,11.70
2023-12-17T10:43:38.945Z,11.20
2023-12-17T10:46:27.458Z,11.33
2023-12-17T10:49:14.437Z,11.60
2023-12-17T10:52:01.637Z,10.77
2023-12-17T10:54:48.300Z,11.03
2023-12-17T10:57:36.051Z,10.63
2023-12-17T11:00:25.192Z,10.53
2023-12-17T11:03:15.048Z,10.50
2023-12-17T11:06:02.651Z,11.20
2023-12-17T11:08:49.216Z,10.93
2023-12-17T11:11:37.015Z,11.33
2023-12-17T11:14:23.257Z,10.90
2023-12-17T11:17:12.418Z,10.93
2023-12-17T11:20:02.349Z,10.90
2023-12-17T11:22:51.133Z,10.10
2023-12-17T11:25:41.494Z,10.47
2023-12-17T11:28:28.035Z,10.67
2023-12-17T11:31:14.963Z,10.67
2023-12-17T11:34:02.574Z,10.70
2023-12-17T11:36:50.800Z,10.93
2023-12-17T11:39:41.762Z,11.00
2023-12-17T11:42:30.022Z,11.00
2023-12-17T11:45:19.069Z,10.47
2023-12-17T11:48:14.796Z,9.83
2023-12-17T11:51:03.957Z,11.10
2023-12-17T11:53:53.433Z,10.50
2023-12-17T11:56:40.349Z,11.43
2023-12-17T11:59:34.574Z,13.00
2023-12-17T12:02:23.261Z,11.33
2023-12-17T12:05:10.968Z,11.83
2023-12-17T12:07:59.359Z,13.43
2023-12-17T12:10:55.636Z,12.97
2023-12-17T12:13:45.354Z,13.37
2023-12-17T12:16:40.875Z,13.77
2023-12-17T12:19:31.995Z,13.23
2023-12-17T12:22:20.139Z,13.47
2023-12-17T12:25:07.939Z,14.80
2023-12-17T12:27:56.442Z,14.13
2023-12-17T12:30:42.680Z,13.80
2023-12-17T12:33:31.798Z,14.50
2023-12-17T12:36:19.185Z,13.87
2023-12-17T12:39:07.001Z,14.63
2023-12-17T12:41:53.562Z,14.30
2023-12-17T12:44:41.848Z,15.57
2023-12-17T12:47:29.621Z,16.10
2023-12-17T12:50:16.509Z,16.27
2023-12-17T12:53:12.044Z,16.20
2023-12-17T12:56:02.135Z,17.20
2023-12-17T12:58:49.215Z,17.40
2023-12-17T13:01:37.201Z,18.53
2023-12-17T13:04:23.735Z,18.57
2023-12-17T13:07:10.392Z,18.77
2023-12-17T13:10:01.427Z,18.80
2023-12-17T13:12:54.339Z,19.90
2023-12-17T13:15:40.662Z,18.60
2023-12-17T13:18:28.668Z,19.70
2023-12-17T13:21:15.316Z,18.30
2023-12-17T13:24:01.593Z,19.10
2023-12-17T13:26:47.764Z,18.90
2023-12-17T13:29:33.987Z,19.00
2023-12-17T13:32:20.863Z,19.50
2023-12-17T13:35:11.100Z,18.90
2023-12-17T13:37:57.850Z,21.13
2023-12-17T13:40:43.994Z,18.60
2023-12-17T13:43:30.650Z,20.00
2023-12-17T13:46:18.052Z,19.23
2023-12-17T13:49:05.011Z,19.87
2023-12-17T13:51:52.983Z,19.90
2023-12-17T13:54:39.323Z,21.00
2023-12-17T13:57:26.292Z,20.70
2023-12-17T14:00:14.187Z,20.77
2023-12-17T14:03:00.650Z,20.60
2023-12-17T14:05:46.990Z,21.40
2023-12-17T14:08:35.090Z,21.50
2023-12-17T14:11:31.493Z,24.40
2023-12-17T14:14:20.260Z,25.57
2023-12-17T14:17:06.722Z,27.03
2023-12-17T14:19:53.345Z,27.70
2023-12-17T14:22:40.381Z,27.90
2023-12-17T14:25:30.233Z,25.70
2023-12-17T14:28:18.312Z,29.87
2023-12-17T14:31:05.142Z,28.60
2023-12-17T14:33:51.875Z,30.37
2023-12-17T14:36:39.853Z,30.10
2023-12-17T14:39:26.788Z,27.17
2023-12-17T14:42:15.014Z,29.40
2023-12-17T14:45:01.749Z,28.47
2023-12-17T14:47:49.075Z,29.50
2023-12-17T14:50:35.202Z,28.90
2023-12-17T14:53:21.575Z,29.20
2023-12-17T14:56:09.851Z,29.20
2023-12-17T14:58:58.487Z,27.37
2023-12-17T15:01:47.686Z,28.23
2023-12-17T15:04:34.207Z,28.67
2023-12-17T15:07:21.736Z,28.17
2023-12-17T15:10:09.919Z,29.27
2023-12-17T15:12:56.493Z,29.00
2023-12-17T15:15:44.558Z,29.97
2023-12-17T15:18:31.544Z,28.90
2023-12-17T15:21:21.837Z,29.30
2023-12-17T15:24:08.914Z,31.37
2023-12-17T15:26:55.453Z,29.60
2023-12-17T15:29:41.737Z,30.67
2023-12-17T15:32:29.313Z,30.13
2023-12-17T15:35:16.009Z,30.97
2023-12-17T15:38:02.834Z,32.60
2023-12-17T15:40:49.113Z,31.50
2023-12-17T15:43:35.423Z,31.33
2023-12-17T15:46:22.113Z,31.60
2023-12-17T15:49:10.157Z,34.90
2023-12-17T15:51:56.914Z,34.70
2023-12-17T15:54:43.169Z,34.40
2023-12-17T15:57:29.467Z,39.13
2023-12-17T16:00:17.320Z,39.27
2023-12-17T16:03:04.374Z,38.40
2023-12-17T16:05:52.677Z,38.87
2023-12-17T16:08:39.270Z,38.93
2023-12-17T16:11:25.973Z,35.70
2023-12-17T16:14:12.233Z,39.07
2023-12-17T16:16:59.789Z,37.83
2023-12-17T16:19:46.359Z,43.07
2023-12-17T16:22:34.340Z,44.80
2023-12-17T16:25:21.407Z,31.70
2023-12-17T16:28:08.135Z,35.37
2023-12-17T16:30:55.422Z,31.67
2023-12-17T16:33:42.766Z,43.13
2023-12-17T16:36:32.071Z,36.27
2023-12-17T16:39:20.960Z,33.50
2023-12-17T16:42:07.964Z,36.53
2023-12-17T16:44:55.091Z,35.10
2023-12-17T16:47:42.033Z,32.30
2023-12-17T16:50:28.914Z,35.50
2023-12-17T16:53:15.816Z,27.53
2023-12-17T16:56:06.453Z,33.70
2023-12-17T16:58:54.092Z,34.27
2023-12-17T17:01:41.115Z,31.70
2023-12-17T17:04:28.527Z,32.57
2023-12-17T17:07:17.284Z,33.30
2023-12-17T17:10:04.805Z,38.90
2023-12-17T17:12:53.776Z,36.83
2023-12-17T17:15:40.647Z,36.37
2023-12-17T17:18:28.839Z,32.53
2023-12-17T17:21:16.605Z,35.33
2023-12-17T17:24:03.593Z,32.40
2023-12-17T17:26:50.508Z,32.60
2023-12-17T17:29:38.684Z,33.60
2023-12-17T17:32:26.882Z,32.77
2023-12-17T17:35:14.254Z,31.90
2023-12-17T17:38:01.299Z,30.67
2023-12-17T17:40:48.392Z,30.60
2023-12-17T17:43:35.485Z,32.60
2023-12-17T17:46:23.699Z,30.63
2023-12-17T17:49:10.772Z,32.20
2023-12-17T17:51:57.878Z,32.10
2023-12-17T17:54:45.925Z,29.80
2023-12-17T17:57:37.278Z,32.57
2023-12-17T18:00:24.448Z,33.70
2023-12-17T18:03:15.244Z,32.97
2023-12-17T18:06:02.146Z,34.17
2023-12-17T18:08:49.043Z,30.97
2023-12-17T18:11:35.659Z,35.10
2023-12-17T18:14:24.272Z,34.83
2023-12-17T18:17:11.247Z,33.23
2023-12-17T18:20:00.134Z,33.80
2023-12-17T18:22:46.734Z,33.73
2023-12-17T18:25:33.784Z,36.20
2023-12-17T18:28:20.767Z,35.17
2023-12-17T18:31:08.154Z,31.87
2023-12-17T18:33:55.124Z,33.30
2023-12-17T18:36:43.462Z,33.93
2023-12-17T18:39:30.581Z,32.70
2023-12-17T18:42:17.124Z,35.90
2023-12-17T18:45:04.672Z,32.23
2023-12-17T18:47:51.648Z,35.30
2023-12-17T18:50:39.306Z,34.50
2023-12-17T18:53:27.542Z,33.00
2023-12-17T18:56:14.334Z,32.30
2023-12-17T18:59:00.558Z,33.13
2023-12-17T19:01:46.873Z,31.63
2023-12-17T19:04:33.524Z,34.10
2023-12-17T19:07:22.875Z,32.80
2023-12-17T19:10:12.137Z,31.57
2023-12-17T19:12:58.946Z,31.47
2023-12-17T19:15:46.540Z,33.57
2023-12-17T19:18:33.403Z,33.10
2023-12-17T19:21:20.399Z,32.90
2023-12-17T19:24:09.400Z,30.53
2023-12-17T19:26:57.957Z,30.27
2023-12-17T19:29:44.722Z,30.27
2023-12-17T19:32:33.742Z,29.70
2023-12-17T19:35:20.714Z,30.73
2023-12-17T19:38:07.841Z,30.50
2023-12-17T19:40:54.605Z,29.10
2023-12-17T19:43:42.691Z,31.10
2023-12-17T19:46:28.953Z,30.13
2023-12-17T19:49:15.914Z,31.07
2023-12-17T19:52:02.763Z,29.90
2023-12-17T19:54:50.508Z,27.27
2023-12-17T19:57:37.810Z,28.03
2023-12-17T20:00:26.099Z,27.83
2023-12-17T20:03:12.558Z,27.47
2023-12-17T20:05:59.368Z,26.33
2023-12-17T20:08:46.063Z,27.40
2023-12-17T20:11:32.783Z,26.30
2023-12-17T20:14:19.266Z,27.33
2023-12-17T20:17:06.859Z,27.13
2023-12-17T20:19:53.331Z,26.80
2023-12-17T20:22:40.153Z,26.43
2023-12-17T20:25:27.691Z,25.53
2023-12-17T20:28:14.484Z,26.67
2023-12-17T20:31:04.186Z,25.83
2023-12-17T20:33:53.307Z,24.03
2023-12-17T20:36:40.192Z,26.70
2023-12-17T20:39:30.086Z,29.20
2023-12-17T20:42:19.081Z,28.97
2023-12-17T20:45:07.182Z,27.50
2023-12-17T20:47:54.120Z,27.70
2023-12-17T20:50:42.647Z,28.93
2023-12-17T20:53:28.947Z,27.77
2023-12-17T20:56:16.098Z,29.40
2023-12-17T20:59:02.693Z,28.13
2023-12-17T21:01:53.085Z,27.67
2023-12-17T21:04:43.170Z,27.37
2023-12-17T21:07:34.432Z,26.07
2023-12-17T21:10:27.233Z,26.27
2023-12-17T21:13:18.613Z,25.70
2023-12-17T21:16:08.053Z,26.67
2023-12-17T21:18:56.344Z,27.73
2023-12-17T21:21:43.469Z,25.20
2023-12-17T21:24:31.112Z,26.40
2023-12-17T21:27:21.320Z,25.67
2023-12-17T21:30:09.281Z,25.60
2023-12-17T21:32:55.757Z,25.30
2023-12-17T21:35:42.542Z,25.00
2023-12-17T21:38:28.908Z,25.70
2023-12-17T21:41:17.194Z,28.40
2023-12-17T21:44:05.641Z,27.47
2023-12-17T21:46:51.798Z,24.17
2023-12-17T21:49:38.377Z,24.10
2023-12-17T21:52:31.913Z,25.13
2023-12-17T21:55:19.687Z,27.63
2023-12-17T21:58:09.042Z,25.40
2023-12-17T22:00:55.486Z,25.87
2023-12-17T22:03:42.229Z,24.83
2023-12-17T22:06:28.851Z,30.27
2023-12-17T22:09:15.756Z,26.73
2023-12-17T22:12:03.003Z,25.87
2023-12-17T22:14:50.865Z,27.77
2023-12-17T22:17:37.231Z,28.57
2023-12-17T22:20:24.171Z,26.17
2023-12-17T22:23:11.271Z,25.73
2023-12-17T22:25:57.820Z,28.57
2023-12-17T22:28:44.542Z,24.53
2023-12-17T22:31:32.093Z,27.57
2023-12-17T22:34:19.634Z,26.10
2023-12-17T22:37:07.819Z,27.17
2023-12-17T22:39:54.423Z,29.90
2023-12-17T22:42:40.565Z,21.97
2023-12-17T22:45:27.317Z,24.97
2023-12-17T22:48:15.741Z,22.07
2023-12-17T22:51:01.953Z,25.50
2023-12-17T22:53:48.270Z,25.30
2023-12-17T22:56:37.479Z,24.33
2023-12-17T22:59:23.962Z,26.10
2023-12-17T23:02:10.540Z,24.10
2023-12-17T23:04:58.502Z,22.70
2023-12-17T23:07:45.253Z,26.43
2023-12-17T23:10:31.448Z,27.60
2023-12-17T23:13:17.646Z,21.90
2023-12-17T23:16:04.213Z,23.87
2023-12-17T23:18:50.892Z,26.27
2023-12-17T23:21:38.871Z,22.03
2023-12-17T23:24:25.521Z,22.37
2023-12-17T23:27:12.963Z,18.70
2023-12-17T23:29:59.640Z,19.67
2023-12-17T23:32:48.630Z,18.33
2023-12-17T23:35:38.006Z,14.40
2023-12-17T23:38:25.666Z,16.20
2023-12-17T23:41:12.075Z,11.57
2023-12-17T23:43:58.350Z,14.87
2023-12-17T23:46:44.998Z,12.67
2023-12-17T23:49:31.279Z,12.43
2023-12-17T23:52:17.892Z,13.67
2023-12-17T23:55:07.934Z,11.40
2023-12-17T23:57:54.346Z,11.73
